Tiempo atmosférico en la estación meteorológica de Torreblanca, Castelló/Castellón (16 m.)



Fecha
DESCASC
Temp. máxima en grados centígrados (hora)
DESCASC
Temp. mínima en grados centígrados (hora)
DESCASC
Temp. media en grados centígrados
DESCASC
Racha de viento máxima en m/sg (hora)
DESCASC
Velocidad máxima media en intervalos de 10 minutos(hora)
DESCASC
Precipitaciones diarias en mm
DESCASC
Precipitaciones de 00:00 a 06:00 en mm
DESCASC
Precipitaciones de 06:00 a 12:00 en mm
DESCASC
Precipitaciones de 12:00 a 18:00 en mm
DESCASC
Precipitaciones de 18:00 a 24:00 en mm
DESCASC
16-06-2019 24 (13:50) 17.5 (06:40) 20.8 7.5 (13:30) 4.44 (06:50) 0 0 0 0 0
15-06-2019 24.7 (17:30) 16.7 (03:30) 20.7 7.78 (12:00) 4.72 (12:30) 0 0 0 0 0
14-06-2019 24.8 (11:20) 17 (00:20) 20.9 9.44 (08:50) 5.28 (00:50) 0 0 0 0 0
13-06-2019 23 (11:50) 15.5 (00:00) 19.3 9.17 (17:40) 6.11 (17:50) 0 0 0 0 0
12-06-2019 20.9 (15:30) 12.3 (00:00) 16.6 7.78 (12:30) 5.28 (11:10) -- 0 -- 0 0
11-06-2019 20.9 (12:50) 14.3 (00:00) 17.6 12.78 (15:20) 7.78 (15:20) 0 0 0 0 0
10-06-2019 25.6 (11:50) 17.5 (00:00) 21.6 8.61 (14:30) 6.11 (13:10) 0 0 0 0 0
09-06-2019 24.6 (19:00) 18 (00:00) 21.3 7.22 (05:40) 5.28 (05:30) 0 0 0 0 0
08-06-2019 23.1 (14:10) 16.6 (00:00) 19.9 9.44 (11:00) 6.11 (03:00) 0 0 0 0 0
07-06-2019 26.3 (13:50) 16.8 (00:00) 21.5 10.83 (12:50) 7.78 (12:50) 0 0 0 0 0
06-06-2019 23.4 (15:10) 15.5 (00:00) 19.4 7.5 (17:10) 4.44 (12:50) 0 0 0 0 0
05-06-2019 27.1 (16:00) 16.8 (00:00) 21.9 14.44 (15:10) 8.89 (15:00) 0 0 0 0 0
04-06-2019 24 (13:30) 16.4 (00:00) 20.2 7.78 (15:40) 4.72 (05:40) 0 0 0 0 0
03-06-2019 24.9 (14:50) 15.8 (00:00) 20.3 7.22 (15:00) 5 (15:00) 0 0 0 0 0
02-06-2019 24 (16:00) 15.2 (00:00) 19.6 8.89 (15:50) 6.11 (15:30) 0 0 0 0 0
01-06-2019 23.1 (15:50) 15.3 (00:00) 19.2 8.06 (14:40) 5.83 (14:30) 0 0 0 0 0
31-05-2019 22.9 (10:50) 14.5 (00:00) 18.7 7.78 (18:20) 5.28 (16:40) 0 0 0 0 0
30-05-2019 22.5 (13:50) 14.2 (00:00) 18.3 8.33 (19:20) 5.83 (19:00) 0 0 0 0 0
29-05-2019 24 (13:40) 15.8 (00:00) 19.9 17.5 (06:10) 11.94 (03:40) 0 0 0 0 0
28-05-2019 24.8 (12:40) 16.5 (00:00) 20.6 11.94 (02:20) 7.5 (09:20) 0 0 0 0 0
27-05-2019 22.5 (10:20) 14.4 (00:00) 18.4 8.33 (14:30) 5 (14:00) 0 0 0 0 0
26-05-2019 23.1 (11:10) 13.6 (00:00) 18.4 8.06 (10:40) 4.72 (10:20) 0 0 0 0 0
25-05-2019 24.6 (15:20) 15.5 (00:00) 20.1 10.56 (11:20) 6.39 (12:30) 0.2 0.2 0 0 0
24-05-2019 18.8 (17:00) 15.6 (00:00) 17.2 7.78 (04:10) 5.28 (04:10) 8 2.4 2.6 1 2
23-05-2019 21.8 (12:50) 14.8 (00:00) 18.3 5.83 (13:20) 4.44 (06:20) 0 0 0 0 0
22-05-2019 21.4 (12:20) 13.3 (00:00) 17.3 6.39 (07:00) 5 (06:50) 0 0 0 0 0
21-05-2019 21.3 (14:30) 14.1 (07:00) 17.7 7.78 (18:40) 5.56 (18:30) 0 0 0 0 0

Gráficas

Temp. máximas Temp. mínimas Temp. medias Precipitaciones Rachas de viento máximas Velocidades máximas media en intervalos de 10 minutos

Datos horarios

Fecha y hora oficial Temperatura (ºC) Velocidad del viento (km/h) Dirección del viento Racha (km/h) Dirección de racha Precipitación (mm) Presión (hPa) Tendencia (hPa) Humedad (%)
2019-06-19 23:00:00 21.4 2 Norte 9 Noroeste 0 -- -- 78
2019-06-19 22:00:00 22.5 0 Calma 5 Norte 0 -- -- 74
2019-06-19 21:00:00 23.8 3 Sur 10 Sudeste 0 -- -- 70
2019-06-19 20:00:00 24 7 Sur 16 Sur 0 -- -- 75
2019-06-19 19:00:00 24.9 10 Sur 18 Sur 0 -- -- 72
2019-06-19 18:00:00 25.6 10 Sur 17 Sudeste 0 -- -- 68
2019-06-19 17:00:00 27.1 9 Sur 17 Sudeste 0 -- -- 60
2019-06-19 16:00:00 26.7 8 Sur 16 Sur 0 -- -- 62
2019-06-19 15:00:00 25.7 9 Sudeste -- -- -- -- -- 68
2019-06-19 14:00:00 -- -- -- -- -- -- -- -- --
2019-06-19 13:00:00 25 12 Sudeste 18 Sudeste 0 -- -- 67
2019-06-19 12:00:00 24.7 10 Sur 21 Sudeste 0 -- -- 66
2019-06-19 11:00:00 24.1 12 Sudeste 22 Sudeste 0 -- -- 69
2019-06-19 10:00:00 23.6 3 Sudeste 14 Noroeste 0 -- -- 66
2019-06-19 09:00:00 21.4 7 Norte 18 Norte 0 -- -- 73
2019-06-19 08:00:00 18.4 15 Noroeste 22 Noroeste 0 -- -- 70
2019-06-19 07:00:00 16.9 17 Noroeste 22 Noroeste 0 -- -- 76
2019-06-19 06:00:00 16.7 17 Norte 23 Norte 0 -- -- 77
2019-06-19 05:00:00 17.7 15 Noroeste 21 Noroeste 0 -- -- 76
2019-06-19 04:00:00 17.7 14 Noroeste 17 Noroeste 0 -- -- 76
2019-06-19 03:00:00 18.2 7 Noroeste 9 Noroeste 0 -- -- 78
2019-06-19 02:00:00 17.7 0 Calma 7 Noroeste 0 -- -- 77
2019-06-19 01:00:00 18.5 8 Noroeste 9 Noroeste 0 -- -- 67
2019-06-19 00:00:00 18.7 5 Noroeste 9 Noroeste 0 -- -- 75
2019-06-18 23:00:00 19.5 6 Noroeste 9 Noroeste 0 -- -- 71
2019-06-18 22:00:00 21.3 3 Oeste 8 Sudoeste 0 -- -- 64
2019-06-18 21:00:00 22.6 4 Sudoeste 13 Sudeste 0 -- -- 60
2019-06-18 20:00:00 23.5 9 Sur 23 Sur 0 -- -- 59
2019-06-18 19:00:00 23.6 15 Sur 25 Sur 0 -- -- 58
2019-06-18 18:00:00 23.9 15 Sur 29 Sur 0 -- -- 63
2019-06-18 17:00:00 24.1 19 Sur 33 Sur 0 -- -- 61
2019-06-18 16:00:00 24.4 20 Sur 35 Sur 0 -- -- 63
2019-06-18 15:00:00 25.3 22 Sur 34 Sur 0 -- -- 53
2019-06-18 14:00:00 24.3 17 Sur 24 Sur 0 -- -- 71
2019-06-18 13:00:00 24.5 11 Sur 20 Sudeste 0 -- -- 69
2019-06-18 12:00:00 24.2 12 Sudeste 22 Sudeste 0 -- -- 72
2019-06-18 11:00:00 24.5 6 Este 15 Este 0 -- -- 69
2019-06-18 10:00:00 22.8 6 Este 14 Sudeste 0 -- -- 75
2019-06-18 09:00:00 21.7 5 Este 11 Este 0 -- -- 76
2019-06-18 08:00:00 20.3 6 Noroeste 14 Noroeste 0 -- -- 67
2019-06-18 07:00:00 19.2 11 Noroeste 14 Noroeste 0 -- -- 62
2019-06-18 06:00:00 17.9 7 Noroeste 10 Noroeste 0 -- -- 64
2019-06-18 05:00:00 17.6 6 Noroeste 9 Noroeste 0 -- -- 67
2019-06-18 04:00:00 18.4 0 Calma 6 Noroeste 0 -- -- 59
2019-06-18 03:00:00 18.8 0 Calma 8 Noroeste 0 -- -- 58
2019-06-18 02:00:00 18.6 6 Noroeste 9 Noroeste 0 -- -- 58
2019-06-18 01:00:00 18.3 4 Noroeste 9 Noroeste 0 -- -- 61
2019-06-18 00:00:00 18.7 8 Noroeste 11 Noroeste 0 -- -- 60
2019-06-17 23:00:00 19.5 3 Noroeste 9 Noroeste 0 -- -- 71
2019-06-17 22:00:00 21.2 5 Oeste 8 Sudoeste 0 -- -- 73
2019-06-17 21:00:00 22.5 6 Sur 15 Sur 0 -- -- 69
2019-06-17 20:00:00 23.2 12 Sur 21 Sur 0 -- -- 64
2019-06-17 19:00:00 23.6 13 Sur 28 Sur 0 -- -- 62
2019-06-17 18:00:00 24 14 Sur 23 Sur 0 -- -- 64
2019-06-17 17:00:00 23.9 15 Sur 27 Sudeste 0 -- -- 64
2019-06-17 16:00:00 23.8 18 Sur 26 Sudeste 0 -- -- 65
2019-06-17 15:00:00 23.6 14 Sudeste 23 Sur 0 -- -- 70
2019-06-17 14:00:00 23.6 14 Sur 22 Sudeste 0 -- -- 71
2019-06-17 13:00:00 23.4 12 Sudeste 21 Sudeste 0 -- -- 72
2019-06-17 12:00:00 23.4 10 Sudeste 18 Sudeste 0 -- -- 72
2019-06-17 11:00:00 23.3 10 Sudeste 15 Sudeste 0 -- -- 71
2019-06-17 10:00:00 23.1 6 Sudeste 13 Sudeste 0 -- -- 67
2019-06-17 09:00:00 21.5 5 Este 10 Noroeste 0 -- -- 66
2019-06-17 08:00:00 18.4 5 Norte 12 Noroeste 0 -- -- 79
2019-06-17 07:00:00 16.3 12 Noroeste 17 Norte 0 -- -- 86
2019-06-17 06:00:00 16.8 6 Norte 9 Norte 0 -- -- 86
2019-06-17 05:00:00 16.9 5 Noroeste 7 Noroeste 0 -- -- 86
2019-06-17 04:00:00 17.3 0 Calma 9 Noroeste 0 -- -- 83
2019-06-17 03:00:00 17.1 5 Noroeste 10 Noroeste 0 -- -- 85
2019-06-17 02:00:00 17.6 6 Noroeste 10 Noroeste 0 -- -- 83
2019-06-17 01:00:00 17.8 5 Noroeste 8 Noroeste 0 -- -- 83
2019-06-17 00:00:00 18.7 3 Norte 10 Norte 0 -- -- 82
2019-06-16 23:00:00 19.4 3 Nordeste 12 Sudoeste 0 -- -- 81
2019-06-16 22:00:00 20 8 Sur 14 Sur 0 -- -- 79
2019-06-16 21:00:00 20.5 6 Sur 14 Sur 0 -- -- 76
2019-06-16 20:00:00 21 9 Sur 22 Sur 0 -- -- 73
2019-06-16 19:00:00 21.7 14 Sur 22 Sur 0 -- -- 69
2019-06-16 18:00:00 22.7 13 Sur 19 Sudeste 0 -- -- 65
2019-06-16 17:00:00 22.7 9 Sur 21 Sur 0 -- -- 62
2019-06-16 16:00:00 22.9 11 Sur 21 Sudeste 0 -- -- 60
2019-06-16 15:00:00 22.9 13 Sur 25 Sur 0 -- -- 60
2019-06-16 14:00:00 23.5 14 Sur 27 Sudeste 0 -- -- 58
2019-06-16 13:00:00 23.8 11 Sur 22 Sudeste 0 -- -- 54
2019-06-16 12:00:00 23.6 10 Sur 20 Sur 0 -- -- 60
2019-06-16 11:00:00 23.7 11 Sur 17 Sudeste 0 -- -- 54
2019-06-16 10:00:00 22.8 4 Sudeste 11 Este 0 -- -- 62
2019-06-16 09:00:00 21.2 5 Nordeste 17 Norte 0 -- -- 71
2019-06-16 08:00:00 19 13 Norte 23 Norte 0 -- -- 79
2019-06-16 07:00:00 17.6 15 Norte 23 Norte 0 -- -- 84
2019-06-16 06:00:00 18 13 Norte 19 Noroeste 0 -- -- 85
2019-06-16 05:00:00 18 13 Norte 18 Noroeste 0 -- -- 85
2019-06-16 04:00:00 18.4 10 Norte 20 Norte 0 -- -- 84
2019-06-16 03:00:00 18.8 11 Norte 19 Norte 0 -- -- 83
2019-06-16 02:00:00 19.3 12 Norte 19 Norte 0 -- -- 81
2019-06-16 01:00:00 19.5 10 Norte 18 Norte 0 -- -- 72
2019-06-16 00:00:00 19.4 4 Norte 16 Norte 0 -- -- 57
2019-06-15 23:00:00 19.8 8 Noroeste 12 Noroeste 0 -- -- 60
2019-06-15 22:00:00 20.7 4 Noroeste 7 Noroeste 0 -- -- 60
2019-06-15 21:00:00 22.6 5 Sur 14 Sudoeste 0 -- -- 58
2019-06-15 20:00:00 23.5 9 Sur 15 Sudeste 0 -- -- 48
2019-06-15 19:00:00 24 10 Sur 18 Sur 0 -- -- 47
2019-06-15 18:00:00 24.4 10 Sur 17 Sur 0 -- -- 50
2019-06-15 17:00:00 24.3 10 Sur 23 Sudeste 0 -- -- 47
2019-06-15 16:00:00 24.1 13 Sur 21 Sudeste 0 -- -- 52
2019-06-15 15:00:00 23.5 14 Sur 25 Sudeste 0 -- -- 61
2019-06-15 14:00:00 23.1 17 Sur 26 Sur 0 -- -- 62
2019-06-15 13:00:00 23.3 16 Sur 27 Sur 0 -- -- 60
2019-06-15 12:00:00 23.5 16 Sur 28 Sudeste 0 -- -- 69
2019-06-15 11:00:00 22.6 13 Sur 20 Sudeste 0 -- -- 74
2019-06-15 10:00:00 22.3 7 Sur 12 Sur 0 -- -- 72
2019-06-15 09:00:00 21.5 4 Sur 8 Sudeste 0 -- -- 72
2019-06-15 08:00:00 19.1 0 Calma 8 Noroeste 0 -- -- 81
2019-06-15 07:00:00 16.9 8 Noroeste 14 Noroeste 0 -- -- 81
2019-06-15 06:00:00 17.4 4 Noroeste 14 Norte 0 -- -- 74
2019-06-15 05:00:00 17.8 9 Norte 21 Norte 0 -- -- 85
2019-06-15 04:00:00 16.8 9 Noroeste 18 Noroeste 0 -- -- 84
2019-06-15 03:00:00 17.4 8 Norte 15 Norte 0 -- -- 87
2019-06-15 02:00:00 19.2 3 Nordeste 9 Noroeste 0 -- -- 92
2019-06-15 01:00:00 18.1 4 Noroeste 8 Noroeste 0 -- -- 82
2019-06-15 00:00:00 19.1 2 Norte 8 Nordeste 0 -- -- 85
2019-06-14 23:00:00 19.7 2 Norte 4 Norte 0 -- -- 82
2019-06-14 22:00:00 21.1 3 Noroeste 5 Oeste 0 -- -- 75
2019-06-14 21:00:00 22.6 3 Sudeste 8 Sudeste 0 -- -- 73
2019-06-14 20:00:00 23.8 4 Sur 12 Sur 0 -- -- 68
2019-06-14 19:00:00 23.7 9 Sur 18 Sur 0 -- -- 65
2019-06-14 18:00:00 23.9 15 Sur 22 Sudeste 0 -- -- 58
2019-06-14 17:00:00 24.1 15 Sur 23 Sur 0 -- -- 55
2019-06-14 16:00:00 24.6 15 Sur 26 Sudeste 0 -- -- 53
2019-06-14 15:00:00 24.5 15 Sur 24 Sur 0 -- -- 47
2019-06-14 14:00:00 24.3 15 Sur 25 Sur 0 -- -- 44
2019-06-14 13:00:00 24.1 15 Sur 23 Sudeste 0 -- -- 41
2019-06-14 12:00:00 23.2 14 Sur 19 Sur 0 -- -- 46
2019-06-14 11:00:00 24.2 6 Sudeste 18 Este 0 -- -- 43
2019-06-14 10:00:00 21.5 8 Oeste 22 Sur 0 -- -- 48
2019-06-14 09:00:00 20.9 18 Sur 34 Sudoeste 0 -- -- 50
2019-06-14 08:00:00 20.1 11 Norte 20 Norte 0 -- -- 49
2019-06-14 07:00:00 18.8 12 Noroeste 16 Noroeste 0 -- -- 45
2019-06-14 06:00:00 18.5 6 Noroeste 15 Noroeste 0 -- -- 41
2019-06-14 05:00:00 18 9 Norte 14 Noroeste 0 -- -- 39
2019-06-14 04:00:00 18.3 8 Norte 18 Norte 0 -- -- 36
2019-06-14 03:00:00 18.4 13 Norte 30 Norte 0 -- -- 34
2019-06-14 02:00:00 17.8 13 Norte 24 Norte 0 -- -- 37
2019-06-14 01:00:00 17.6 18 Norte 26 Norte 0 -- -- 41
2019-06-14 00:00:00 17.2 14 Norte 24 Norte 0 -- -- 49
2019-06-13 23:00:00 18.5 17 Norte 24 Norte 0 -- -- 57
2019-06-13 22:00:00 18.9 6 Norte 11 Nordeste 0 -- -- 55
2019-06-13 21:00:00 20.2 7 Nordeste 22 Este 0 -- -- 44
2019-06-13 20:00:00 21.1 17 Este 31 Este 0 -- -- 56
2019-06-13 19:00:00 21.5 18 Este 30 Este 0 -- -- 62
2019-06-13 18:00:00 21.7 19 Este 33 Este 0 -- -- 65
2019-06-13 17:00:00 22.3 20 Este 30 Este 0 -- -- 66
2019-06-13 16:00:00 21.9 15 Este 27 Este 0 -- -- 68
2019-06-13 15:00:00 21.2 14 Este 26 Sudeste 0 -- -- 71
2019-06-13 14:00:00 20.6 17 Sudeste 29 Este 0 -- -- 73
2019-06-13 13:00:00 21.6 20 Este 30 Este 0 -- -- 70
2019-06-13 12:00:00 22.4 13 Este 24 Este 0 -- -- 66
2019-06-13 11:00:00 21.4 6 Este 15 Sudeste 0 -- -- 67
2019-06-13 10:00:00 20.2 4 Nordeste 12 Norte 0 -- -- 68
2019-06-13 09:00:00 18.9 6 Norte 14 Norte 0 -- -- 65
2019-06-13 08:00:00 18 8 Norte 14 Noroeste 0 -- -- 58
2019-06-13 07:00:00 16.9 12 Noroeste 16 Noroeste 0 -- -- 57
2019-06-13 06:00:00 16.3 2 Noroeste 17 Noroeste 0 -- -- 61
2019-06-13 05:00:00 16.3 10 Noroeste 15 Noroeste 0 -- -- 64
2019-06-13 04:00:00 17 6 Noroeste 14 Noroeste 0 -- -- 59
2019-06-13 03:00:00 16.7 5 Norte 17 Noroeste 0 -- -- 62
2019-06-13 02:00:00 16.2 14 Noroeste 22 Norte 0 -- -- 65
2019-06-13 01:00:00 15.7 10 Noroeste 18 Noroeste 0 -- -- 70
2019-06-13 00:00:00 15.5 8 Noroeste 11 Noroeste 0 -- -- 72
2019-06-12 23:00:00 15.7 7 Noroeste 8 Noroeste 0 -- -- 70
2019-06-12 22:00:00 17 5 Noroeste 8 Sur 0 -- -- 64
2019-06-12 21:00:00 19 5 Sur 13 Sudeste 0 -- -- 59
2019-06-12 20:00:00 19.6 8 Sur 19 Sudeste 0 -- -- 55
2019-06-12 19:00:00 19.9 12 Sudeste 22 Sur 0 -- -- 52
2019-06-12 18:00:00 20.2 12 Sur 22 Sur 0 -- -- 51
2019-06-12 17:00:00 20.2 14 Sudeste 26 Sudeste 0 -- -- 54
2019-06-12 16:00:00 20.4 14 Sur 26 Sudeste 0 -- -- 51
2019-06-12 15:00:00 20.6 15 Sur 27 Sudeste 0 -- -- 51
2019-06-12 14:00:00 20.6 15 Sur 28 Sudeste 0 -- -- 53
2019-06-12 13:00:00 20.1 16 Sudeste 28 Sudeste 0 -- -- 54
2019-06-12 12:00:00 19.8 15 Sudeste 27 Sudeste 0 -- -- 52
2019-06-12 11:00:00 -- -- -- -- -- -- -- -- --
2019-06-12 10:00:00 19.3 6 Sur 16 Nordeste 0 -- -- 41
2019-06-12 09:00:00 17 9 Norte 23 Norte 0 -- -- 48
2019-06-12 08:00:00 14.8 15 Norte 24 Norte 0 -- -- 52
2019-06-12 07:00:00 12.8 16 Norte 22 Norte 0 -- -- 57
2019-06-12 06:00:00 12.7 17 Norte 21 Norte 0 -- -- 58
2019-06-12 05:00:00 12.6 15 Norte 18 Norte 0 -- -- 58
2019-06-12 04:00:00 13.9 13 Norte 18 Norte 0 -- -- 54
2019-06-12 03:00:00 12.8 10 Norte 18 Norte 0 -- -- 57
2019-06-12 02:00:00 13.8 14 Norte 19 Norte 0 -- -- 54
2019-06-12 01:00:00 14.7 12 Norte 19 Norte 0 -- -- 57
2019-06-12 00:00:00 14.3 10 Noroeste 17 Norte 0 -- -- 65
2019-06-11 23:00:00 14.5 5 Norte 11 Noroeste 0 -- -- 66
2019-06-11 22:00:00 15.9 3 Norte 5 Norte 0 -- -- 60
2019-06-11 21:00:00 18 4 Este 8 Sudeste 0 -- -- 53
2019-06-11 20:00:00 18.4 0 Calma 13 Este 0 -- -- 47
2019-06-11 19:00:00 18.4 10 Este 26 Norte 0 -- -- 45
2019-06-11 18:00:00 18.4 21 Norte 41 Nordeste 0 -- -- 44
2019-06-11 17:00:00 17.9 18 Nordeste 39 Norte 0 -- -- 48
2019-06-11 16:00:00 18 21 Norte 46 Norte 0 -- -- 50
2019-06-11 15:00:00 19.5 27 Nordeste 41 Nordeste 0 -- -- 45
2019-06-11 14:00:00 19.2 26 Nordeste 41 Nordeste 0 -- -- 46
2019-06-11 13:00:00 20.3 22 Nordeste 38 Nordeste 0 -- -- 44
2019-06-11 12:00:00 20 18 Nordeste 35 Nordeste 0 -- -- 44
2019-06-11 11:00:00 20 14 Norte 30 Nordeste 0 -- -- 43
2019-06-11 10:00:00 19.5 16 Nordeste 24 Nordeste 0 -- -- 43
2019-06-11 09:00:00 18.6 14 Nordeste 27 Norte 0 -- -- 44
2019-06-11 08:00:00 18.4 15 Norte 26 Norte 0 -- -- 44
2019-06-11 07:00:00 18 15 Norte 28 Norte 0 -- -- 46
2019-06-11 06:00:00 17 16 Norte 25 Norte 0 -- -- 55
2019-06-11 05:00:00 17.1 10 Norte 18 Norte 0 -- -- 54
2019-06-11 04:00:00 17.7 13 Norte 26 Nordeste 0 -- -- 52
2019-06-11 03:00:00 18.3 15 Norte 28 Nordeste 0 -- -- 50
2019-06-11 02:00:00 18.7 16 Norte 28 Norte 0 -- -- 53
2019-06-11 01:00:00 19.4 15 Norte 21 Norte 0 -- -- 61
2019-06-11 00:00:00 19.4 3 Oeste 13 Noroeste 0 -- -- 65
2019-06-10 23:00:00 19.7 0 Calma 7 Oeste 0 -- -- 71
2019-06-10 22:00:00 20.3 3 Noroeste 8 Sudoeste 0 -- -- 76
2019-06-10 21:00:00 20.8 7 Sudoeste 11 Sudoeste 0 -- -- 77
2019-06-10 20:00:00 21.6 6 Sur 12 Sur 0 -- -- 71
2019-06-10 19:00:00 21.6 8 Sur 17 Sur 0 -- -- 69
2019-06-10 18:00:00 22.7 9 Sur 19 Sur 0 -- -- 65
2019-06-10 17:00:00 23.3 11 Sur 25 Sur 0 -- -- 59
2019-06-10 16:00:00 22.6 17 Sur 27 Sur 0 -- -- 66
2019-06-10 15:00:00 23.5 18 Sur 31 Sur 0 -- -- 60
2019-06-10 14:00:00 24.1 21 Sur 31 Sur 0 -- -- 56
2019-06-10 13:00:00 24.7 21 Sudoeste 29 Sudoeste 0 -- -- 49
2019-06-10 12:00:00 25.4 14 Sur 22 Sur 0 -- -- 43
2019-06-10 11:00:00 25 10 Sur 28 Noroeste 0 -- -- 42
2019-06-10 10:00:00 23.4 8 Norte 21 Norte 0 -- -- 45
2019-06-10 09:00:00 20.6 13 Norte 21 Norte 0 -- -- 52
2019-06-10 08:00:00 19.3 6 Norte 14 Noroeste 0 -- -- 55
2019-06-10 07:00:00 18.9 5 Sur 24 Nordeste 0 -- -- 55
2019-06-10 06:00:00 19.4 11 Nordeste 24 Nordeste 0 -- -- 53
2019-06-10 05:00:00 19.6 15 Nordeste 25 Nordeste 0 -- -- 52
2019-06-10 04:00:00 19.4 13 Nordeste 30 Norte 0 -- -- 48
2019-06-10 03:00:00 17.8 22 Norte 29 Norte 0 -- -- 48
2019-06-10 02:00:00 18 10 Norte 22 Norte 0 -- -- 47
2019-06-10 01:00:00 18.1 8 Norte 16 Norte 0 -- -- 48
2019-06-10 00:00:00 18 8 Norte 17 Norte 0 -- -- 51
2019-06-09 23:00:00 18.3 9 Norte 11 Norte 0 -- -- 52
2019-06-09 22:00:00 18.5 6 Noroeste 9 Noroeste 0 -- -- 54
2019-06-09 21:00:00 21.4 6 Sudoeste 15 Sur 0 -- -- 49
2019-06-09 20:00:00 22.9 11 Sur 18 Sur 0 -- -- 38
2019-06-09 19:00:00 24.6 5 Sudoeste 14 Sudoeste 0 -- -- 32
2019-06-09 18:00:00 23.1 5 Sudoeste 12 Sudoeste 0 -- -- 30
2019-06-09 17:00:00 22.6 4 Sudoeste 14 Sur 0 -- -- 31
2019-06-09 16:00:00 23.1 4 Sur 14 Sudoeste 0 -- -- 28
2019-06-09 15:00:00 22.4 6 Este 17 Este 0 -- -- 34
2019-06-09 14:00:00 22.5 5 Sudeste 15 Sur 0 -- -- 29
2019-06-09 13:00:00 23 5 Sur 15 Sur 0 -- -- 38
2019-06-09 12:00:00 23.4 3 Nordeste 10 Nordeste 0 -- -- 32
2019-06-09 11:00:00 22.5 4 Oeste 9 Oeste 0 -- -- 35
2019-06-09 10:00:00 21.6 4 Oeste 8 Oeste 0 -- -- 37
2019-06-09 09:00:00 19.6 5 Nordeste 12 Noroeste 0 -- -- 43
2019-06-09 08:00:00 18.8 4 Norte 15 Norte 0 -- -- 42
2019-06-09 07:00:00 18.6 6 Oeste 24 Norte 0 -- -- 42
2019-06-09 06:00:00 18.4 18 Norte 26 Norte 0 -- -- 43
2019-06-09 05:00:00 18 18 Norte 24 Norte 0 -- -- 43
2019-06-09 04:00:00 18.2 15 Norte 22 Norte 0 -- -- 42
2019-06-09 03:00:00 18.4 14 Norte 21 Norte 0 -- -- 43
2019-06-09 02:00:00 18.4 16 Norte 22 Norte 0 -- -- 45
2019-06-09 01:00:00 18.7 17 Norte 22 Norte 0 -- -- 46
2019-06-09 00:00:00 18.6 14 Norte 22 Norte 0 -- -- 48
2019-06-08 23:00:00 19.3 13 Norte 18 Norte 0 -- -- 47
2019-06-08 22:00:00 20 6 Norte 12 Nordeste 0 -- -- 45
2019-06-08 21:00:00 20.6 4 Este 14 Sudeste 0 -- -- 48
2019-06-08 20:00:00 21.3 8 Este 20 Este 0 -- -- 46
2019-06-08 19:00:00 21.4 9 Este 22 Este 0 -- -- 49
2019-06-08 18:00:00 21.9 9 Este 26 Este 0 -- -- 50
2019-06-08 17:00:00 22.6 13 Sudeste 28 Sudeste 0 -- -- 51
2019-06-08 16:00:00 22.6 13 Sudeste 27 Este 0 -- -- 51
2019-06-08 15:00:00 22.6 15 Sudeste 30 Sudeste 0 -- -- 52
2019-06-08 14:00:00 22.8 13 Sudeste 31 Sudeste 0 -- -- 51
2019-06-08 13:00:00 22.2 15 Sudeste 32 Este 0 -- -- 54
2019-06-08 12:00:00 22.4 15 Sudeste 30 Este 0 -- -- 52
2019-06-08 11:00:00 21.8 21 Este 34 Este 0 -- -- 53
2019-06-08 10:00:00 21.9 17 Este 32 Este 0 -- -- 50
2019-06-08 09:00:00 21.1 14 Este 23 Este 0 -- -- 58
2019-06-08 08:00:00 19.3 10 Nordeste 18 Nordeste 0 -- -- 70
2019-06-08 07:00:00 18.4 9 Nordeste 17 Nordeste 0 -- -- 75
2019-06-08 06:00:00 18.9 10 Este 28 Norte 0 -- -- 76
2019-06-08 05:00:00 17.8 19 Norte 32 Norte 0 -- -- 73
2019-06-08 04:00:00 19 17 Norte 32 Norte 0 -- -- 38
2019-06-08 03:00:00 18.3 22 Norte 27 Norte 0 -- -- 41
2019-06-08 02:00:00 18.2 19 Norte 25 Norte 0 -- -- 52
2019-06-08 01:00:00 19.1 16 Norte 21 Norte 0 -- -- 59
2019-06-08 00:00:00 19.8 14 Norte 16 Norte 0 -- -- 58
2019-06-07 23:00:00 19.4 5 Norte 8 Noroeste 0 -- -- 63
2019-06-07 22:00:00 20.5 5 Noroeste 8 Noroeste 0 -- -- 63
2019-06-07 21:00:00 23.1 3 Sur 11 Sudeste 0 -- -- 58
2019-06-07 20:00:00 24.2 5 Sudeste 18 Este 0 -- -- 51
2019-06-07 19:00:00 24.4 14 Este 26 Sudeste 0 -- -- 50
2019-06-07 18:00:00 24.6 19 Sudeste 32 Sudeste 0 -- -- 53
2019-06-07 17:00:00 25.3 22 Sudeste 36 Este 0 -- -- 49
2019-06-07 16:00:00 25.5 25 Este 38 Sudeste 0 -- -- 46
2019-06-07 15:00:00 25.3 22 Este 37 Sudeste 0 -- -- 48
2019-06-07 14:00:00 26.1 24 Sur 33 Sur 0 -- -- 49
2019-06-07 13:00:00 24.3 25 Sur 39 Sudoeste 0 -- -- 51
2019-06-07 12:00:00 22.6 27 Sur 37 Sur 0 -- -- 67
2019-06-07 11:00:00 22.7 21 Sudoeste 33 Sur 0 -- -- 65
2019-06-07 10:00:00 22.3 13 Sur 18 Sur 0 -- -- 68
2019-06-07 09:00:00 21 4 Sur 8 Sur 0 -- -- 74
2019-06-07 08:00:00 18.4 5 Noroeste 14 Norte 0 -- -- 82
2019-06-07 07:00:00 16.8 12 Norte 16 Norte 0 -- -- 88
2019-06-07 06:00:00 17 11 Norte 17 Norte 0 -- -- 89
2019-06-07 05:00:00 17.4 10 Norte 13 Norte 0 -- -- 89
2019-06-07 04:00:00 18 5 Noroeste 8 Oeste 0 -- -- 89
2019-06-07 03:00:00 18.2 2 Norte 8 Norte 0 -- -- 89
2019-06-07 02:00:00 18.5 6 Norte 8 Norte 0 -- -- 88
2019-06-07 01:00:00 19.3 4 Noroeste 6 Noroeste 0 -- -- 85
2019-06-07 00:00:00 19.7 0 Calma 11 Este 0 -- -- 85
2019-06-06 23:00:00 19.9 7 Este 14 Este 0 -- -- 86
2019-06-06 22:00:00 19.9 7 Este 14 Este 0 -- -- 84
2019-06-06 21:00:00 20.4 9 Este 17 Sudeste 0 -- -- 80
2019-06-06 20:00:00 21.4 8 Sudeste 21 Sudeste 0 -- -- 75
2019-06-06 19:00:00 22 10 Sudeste 22 Sudeste 0 -- -- 72
2019-06-06 18:00:00 21.8 13 Sudeste 27 Sudeste 0 -- -- 75
2019-06-06 17:00:00 22.5 14 Sur 26 Sudeste 0 -- -- 70
2019-06-06 16:00:00 23.1 14 Sudeste 23 Sudeste 0 -- -- 65
2019-06-06 15:00:00 23.1 14 Sur 23 Sur 0 -- -- 46
2019-06-06 14:00:00 22.6 12 Sudeste 22 Sudeste 0 -- -- 54
2019-06-06 13:00:00 22.4 14 Sudeste 25 Sudeste 0 -- -- 53
2019-06-06 12:00:00 22.3 12 Sur 20 Sudeste 0 -- -- 54
2019-06-06 11:00:00 22.2 12 Sudeste 19 Sudeste 0 -- -- 55
2019-06-06 10:00:00 21.5 10 Sudeste 19 Sudeste 0 -- -- 55
2019-06-06 09:00:00 20.4 4 Sur 9 Sur 0 -- -- 57
2019-06-06 08:00:00 18.5 2 Sudeste 15 Norte 0 -- -- 63
2019-06-06 07:00:00 16.3 11 Norte 15 Noroeste 0 -- -- 66
2019-06-06 06:00:00 16.4 3 Oeste 12 Noroeste 0 -- -- 67
2019-06-06 05:00:00 16.3 3 Oeste 13 Norte 0 -- -- 66
2019-06-06 04:00:00 16.4 6 Norte 9 Noroeste 0 -- -- 67
2019-06-06 03:00:00 17.2 0 Calma 16 Noroeste 0 -- -- 66
2019-06-06 02:00:00 17.2 10 Noroeste 15 Noroeste 0 -- -- 72
2019-06-06 01:00:00 17.4 4 Este 12 Norte 0 -- -- 57
2019-06-06 00:00:00 19.1 8 Nordeste 12 Norte 0 -- -- 50
2019-06-05 23:00:00 19.9 6 Oeste 14 Oeste 0 -- -- 63
2019-06-05 22:00:00 21.6 3 Oeste 13 Sudoeste 0 -- -- 61
2019-06-05 21:00:00 23.7 5 Noroeste 23 Nordeste 0 -- -- 32
2019-06-05 20:00:00 24.6 13 Norte 31 Norte 0 -- -- 28
2019-06-05 19:00:00 25.4 17 Norte 35 Norte 0 -- -- 28
2019-06-05 18:00:00 25.3 21 Norte 41 Norte 0 -- -- 30
2019-06-05 17:00:00 26.5 22 Norte 50 Norte 0 -- -- 27
2019-06-05 16:00:00 27.1 16 Norte 52 Nordeste 0 -- -- 24
2019-06-05 15:00:00 24.9 32 Nordeste 48 Nordeste 0 -- -- 49
2019-06-05 14:00:00 25.2 16 Sudeste 25 Sudeste 0 -- -- 54
2019-06-05 13:00:00 23.7 15 Sur 23 Sur 0 -- -- 67
2019-06-05 12:00:00 22.9 16 Sur 25 Sur 0 -- -- 65
2019-06-05 11:00:00 22.9 15 Sur 23 Sur 0 -- -- 67
2019-06-05 10:00:00 22.6 4 Oeste 10 Norte 0 -- -- 67
2019-06-05 09:00:00 20.5 9 Norte 18 Norte 0 -- -- 75
2019-06-05 08:00:00 19 13 Norte 21 Norte 0 -- -- 78
2019-06-05 07:00:00 18.2 14 Norte 23 Norte 0 -- -- 81
2019-06-05 06:00:00 17.9 14 Norte 22 Norte 0 -- -- 83
2019-06-05 05:00:00 17.2 15 Norte 23 Norte 0 -- -- 87
2019-06-05 04:00:00 16.9 16 Norte 24 Norte 0 -- -- 86
2019-06-05 03:00:00 17 15 Norte 21 Norte 0 -- -- 86
2019-06-05 02:00:00 17.7 11 Norte 17 Norte 0 -- -- 87
2019-06-05 01:00:00 17.9 8 Norte 15 Norte 0 -- -- 87
2019-06-05 00:00:00 17.8 3 Norte 6 Norte 0 -- -- 86
2019-06-04 23:00:00 18.5 4 Norte 5 Norte 0 -- -- 86
2019-06-04 22:00:00 19.4 0 Calma 9 Sudeste 0 -- -- 83
2019-06-04 21:00:00 20.6 6 Sudeste 13 Sudeste 0 -- -- 80
2019-06-04 20:00:00 21.9 7 Sudeste 13 Sur 0 -- -- 74
2019-06-04 19:00:00 22.2 6 Sur 21 Sudeste 0 -- -- 75
2019-06-04 18:00:00 22.8 10 Sur 21 Sur 0 -- -- 72
2019-06-04 17:00:00 23 10 Sur 27 Sudoeste 0 -- -- 70
2019-06-04 16:00:00 22.8 16 Sur 28 Sur 0 -- -- 71
2019-06-04 15:00:00 23.1 16 Sur 24 Sur 0 -- -- 70
2019-06-04 14:00:00 23.5 13 Sur 20 Sudeste 0 -- -- 69
2019-06-04 13:00:00 23.5 10 Sur 21 Sur 0 -- -- 69
2019-06-04 12:00:00 23.4 13 Sudeste 25 Sudeste 0 -- -- 67
2019-06-04 11:00:00 22.9 11 Este 21 Sudeste 0 -- -- 68
2019-06-04 10:00:00 22.1 10 Sudeste 18 Sudeste 0 -- -- 72
2019-06-04 09:00:00 20.2 6 Nordeste 16 Norte 0 -- -- 75
2019-06-04 08:00:00 18.2 12 Norte 19 Norte 0 -- -- 67
2019-06-04 07:00:00 17.6 11 Norte 20 Norte 0 -- -- 64
2019-06-04 06:00:00 17 13 Norte 20 Norte 0 -- -- 67
2019-06-04 05:00:00 16.7 10 Norte 13 Norte 0 -- -- 62
2019-06-04 04:00:00 16.6 2 Norte 7 Norte 0 -- -- 67
2019-06-04 03:00:00 17.5 8 Norte 14 Norte 0 -- -- 55
2019-06-04 02:00:00 16.8 5 Norte 8 Norte 0 -- -- 65
2019-06-04 01:00:00 17.1 2 Norte 5 Noroeste 0 -- -- 64
2019-06-04 00:00:00 17.9 3 Norte 5 Norte 0 -- -- 58
2019-06-03 23:00:00 18.9 0 Calma 4 Noroeste 0 -- -- 51
2019-06-03 22:00:00 20.7 0 Calma 10 Sudoeste 0 -- -- 56
2019-06-03 21:00:00 22.1 6 Sudoeste 14 Sur 0 -- -- 58
2019-06-03 20:00:00 23.1 10 Sudoeste 17 Sudoeste 0 -- -- 55
2019-06-03 19:00:00 22.8 11 Sur 24 Sur 0 -- -- 59
2019-06-03 18:00:00 23.8 14 Sur 26 Sur 0 -- -- 52
2019-06-03 17:00:00 24 13 Sur 22 Sudoeste 0 -- -- 52
2019-06-03 16:00:00 23.9 13 Sur 26 Sur 0 -- -- 56
2019-06-03 15:00:00 24.9 18 Sur 26 Sur 0 -- -- 47
2019-06-03 14:00:00 23.8 14 Sur 22 Sur 0 -- -- 66
2019-06-03 13:00:00 23.7 10 Sudeste 17 Sudeste 0 -- -- 70
2019-06-03 12:00:00 23 9 Sur 16 Sudeste 0 -- -- 70
2019-06-03 11:00:00 22.8 9 Sur 17 Sur 0 -- -- 67
2019-06-03 10:00:00 22.6 5 Sudeste 11 Sudeste 0 -- -- 65
2019-06-03 09:00:00 21.4 5 Sur 8 Sur 0 -- -- 62
2019-06-03 08:00:00 18.6 2 Norte 12 Norte 0 -- -- 54
2019-06-03 07:00:00 16.9 9 Norte 13 Norte 0 -- -- 52
2019-06-03 06:00:00 16.6 8 Norte 13 Norte 0 -- -- 52
2019-06-03 05:00:00 15.8 3 Norte 6 Norte 0 -- -- 60
2019-06-03 04:00:00 16.1 6 Noroeste 9 Noroeste 0 -- -- 57
2019-06-03 03:00:00 15.9 5 Norte 7 Noroeste 0 -- -- 52
2019-06-03 02:00:00 16.5 0 Calma 7 Noroeste 0 -- -- 50
2019-06-03 01:00:00 18 2 Norte 6 Oeste 0 -- -- 46
2019-06-03 00:00:00 20 6 Oeste 10 Oeste 0 -- -- 41
2019-06-02 23:00:00 20.4 4 Oeste 12 Oeste 0 -- -- 43
2019-06-02 22:00:00 20.2 3 Oeste 10 Sudoeste 0 -- -- 51
2019-06-02 21:00:00 21.9 7 Sudoeste 18 Sudoeste 0 -- -- 49
2019-06-02 20:00:00 22.9 13 Sudoeste 25 Sur 0 -- -- 52
2019-06-02 19:00:00 23.1 17 Sudoeste 28 Sur 0 -- -- 55
2019-06-02 18:00:00 23.4 18 Sur 30 Sur 0 -- -- 55
2019-06-02 17:00:00 23.5 21 Sur 31 Sudoeste 0 -- -- 50
2019-06-02 16:00:00 24 21 Sur 32 Sur 0 -- -- 40
2019-06-02 15:00:00 23.6 16 Sur 23 Sur 0 -- -- 51
2019-06-02 14:00:00 23.2 14 Sur 23 Sur 0 -- -- 54
2019-06-02 13:00:00 23.1 10 Sur 20 Sudeste 0 -- -- 60
2019-06-02 12:00:00 22.8 11 Sur 18 Sudeste 0 -- -- 61
2019-06-02 11:00:00 22.5 10 Sur 18 Sur 0 -- -- 59
2019-06-02 10:00:00 22 9 Sur 15 Sur 0 -- -- 49
2019-06-02 09:00:00 21.4 4 Sudeste 6 Sudeste 0 -- -- 44
2019-06-02 08:00:00 18.9 0 Calma 6 Noroeste 0 -- -- 49
2019-06-02 07:00:00 16.9 3 Noroeste 8 Noroeste 0 -- -- 52
2019-06-02 06:00:00 16.3 6 Noroeste 13 Noroeste 0 -- -- 54
2019-06-02 05:00:00 15.5 0 Calma 13 Noroeste 0 -- -- 59
2019-06-02 04:00:00 17.4 9 Noroeste 14 Noroeste 0 -- -- 51
2019-06-02 03:00:00 17.1 4 Noroeste 14 Oeste 0 -- -- 49
2019-06-02 02:00:00 17.4 8 Noroeste 10 Noroeste 0 -- -- 45
2019-06-02 01:00:00 17.6 8 Noroeste 9 Noroeste 0 -- -- 44
2019-06-02 00:00:00 18 5 Noroeste 8 Noroeste 0 -- -- 48
2019-06-01 23:00:00 17.5 0 Calma 4 Noroeste 0 -- -- 61
2019-06-01 22:00:00 19.1 2 Norte 13 Sudoeste 0 -- -- 60
2019-06-01 21:00:00 21 6 Sudoeste 18 Sur 0 -- -- 60
2019-06-01 20:00:00 22 12 Sudoeste 19 Sudoeste 0 -- -- 56
2019-06-01 19:00:00 22.8 13 Sur 24 Sudoeste 0 -- -- 48
2019-06-01 18:00:00 22.7 16 Sur 26 Sur 0 -- -- 51
2019-06-01 17:00:00 22.8 16 Sur 28 Sur 0 -- -- 61
2019-06-01 16:00:00 22.9 18 Sur 26 Sur 0 -- -- 59
2019-06-01 15:00:00 22.7 18 Sur 29 Sur 0 -- -- 64
2019-06-01 14:00:00 22.8 19 Sur 28 Sur 0 -- -- 54
2019-06-01 13:00:00 22.6 18 Sur 26 Sur 0 -- -- 56
2019-06-01 12:00:00 22 17 Sur 23 Sur 0 -- -- 66
2019-06-01 11:00:00 22 14 Sur 23 Sur 0 -- -- 62
2019-06-01 10:00:00 21.8 9 Sur 14 Sur 0 -- -- 57
2019-06-01 09:00:00 20.7 5 Sur 9 Sur 0 -- -- 55
2019-06-01 08:00:00 18.6 0 Calma 12 Norte 0 -- -- 64
2019-06-01 07:00:00 16.4 9 Norte 15 Noroeste 0 -- -- 64
2019-06-01 06:00:00 15.8 6 Norte 10 Norte 0 -- -- 67
2019-06-01 05:00:00 15.3 2 Noroeste 8 Noroeste 0 -- -- 70
2019-06-01 04:00:00 15.7 6 Noroeste 10 Noroeste 0 -- -- 68
2019-06-01 03:00:00 16.5 5 Noroeste 10 Noroeste 0 -- -- 65
2019-06-01 02:00:00 16.8 6 Noroeste 8 Noroeste 0 -- -- 64
2019-06-01 01:00:00 16.8 5 Noroeste 9 Noroeste 0 -- -- 64
2019-06-01 00:00:00 17.3 2 Noroeste 6 Noroeste 0 -- -- 63
2019-05-31 23:00:00 18 4 Norte 5 Noroeste 0 -- -- 61
2019-05-31 22:00:00 19 5 Noroeste 8 Noroeste 0 -- -- 60
2019-05-31 21:00:00 20.9 6 Sudoeste 18 Sudoeste 0 -- -- 57
2019-05-31 20:00:00 21.8 13 Sudoeste 27 Sudoeste 0 -- -- 49
2019-05-31 19:00:00 22.2 18 Sur 28 Sudoeste 0 -- -- 53
2019-05-31 18:00:00 22.4 17 Sudoeste 28 Sudoeste 0 -- -- 57
2019-05-31 17:00:00 22.5 18 Sur 27 Sur 0 -- -- 59
2019-05-31 16:00:00 22.7 15 Sur 22 Sur 0 -- -- 66
2019-05-31 15:00:00 22.1 13 Sur 23 Sur 0 -- -- 68
2019-05-31 14:00:00 22.3 14 Sur 21 Sur 0 -- -- 66
2019-05-31 13:00:00 22.2 12 Sur 18 Sur 0 -- -- 64
2019-05-31 12:00:00 22 11 Sur 18 Sur 0 -- -- 64
2019-05-31 11:00:00 22.9 10 Sudeste 15 Sur 0 -- -- 60
2019-05-31 10:00:00 22.4 6 Sudeste 10 Sudeste 0 -- -- 45
2019-05-31 09:00:00 19.2 6 Norte 14 Norte 0 -- -- 59
2019-05-31 08:00:00 16.7 9 Norte 17 Noroeste 0 -- -- 65
2019-05-31 07:00:00 14.8 3 Norte 17 Norte 0 -- -- 75
2019-05-31 06:00:00 14.5 11 Norte 19 Norte 0 -- -- 76
2019-05-31 05:00:00 15 12 Norte 17 Norte 0 -- -- 76
2019-05-31 04:00:00 15 11 Norte 14 Norte 0 -- -- 74
2019-05-31 03:00:00 15 5 Norte 6 Noroeste 0 -- -- 79
2019-05-31 02:00:00 15.5 6 Noroeste 14 Norte 0 -- -- 74
2019-05-31 01:00:00 16.3 8 Norte 11 Norte 0 -- -- 72
2019-05-31 00:00:00 16.2 3 Norte 8 Noroeste 0 -- -- 75
2019-05-30 23:00:00 17.3 4 Noroeste 6 Noroeste 0 -- -- 74
2019-05-30 22:00:00 18.7 3 Noroeste 15 Sudoeste 0 -- -- 70
2019-05-30 21:00:00 19.5 9 Sudoeste 26 Sudoeste 0 -- -- 68
2019-05-30 20:00:00 20.5 17 Sudoeste 30 Sur 0 -- -- 62
2019-05-30 19:00:00 21.2 21 Sur 28 Sur 0 -- -- 59
2019-05-30 18:00:00 21.5 19 Sur 28 Sudoeste 0 -- -- 57
2019-05-30 17:00:00 22.1 15 Sudoeste 23 Sur 0 -- -- 62
2019-05-30 16:00:00 22.3 15 Sur 24 Sur 0 -- -- 63
2019-05-30 15:00:00 22.4 15 Sur 25 Sur 0 -- -- 58
2019-05-30 14:00:00 22.3 16 Sur 24 Sur 0 -- -- 48
2019-05-30 13:00:00 22.1 14 Sur 22 Sur 0 -- -- 50
2019-05-30 12:00:00 21.4 13 Sur 21 Sur 0 -- -- 58
2019-05-30 11:00:00 21.3 11 Sur 20 Sur 0 -- -- 56
2019-05-30 10:00:00 20.9 9 Sur 13 Sudeste 0 -- -- 54
2019-05-30 09:00:00 20.2 4 Sur 9 Sudoeste 0 -- -- 53
2019-05-30 08:00:00 17.2 3 Norte 8 Norte 0 -- -- 57
2019-05-30 07:00:00 15.1 4 Norte 18 Norte 0 -- -- 60
2019-05-30 06:00:00 14.4 11 Noroeste 17 Norte 0 -- -- 61
2019-05-30 05:00:00 15.4 6 Norte 17 Norte 0 -- -- 58
2019-05-30 04:00:00 15.8 13 Norte 16 Norte 0 -- -- 56
2019-05-30 03:00:00 15 4 Norte 9 Norte 0 -- -- 58
2019-05-30 02:00:00 15.5 5 Noroeste 10 Norte 0 -- -- 55
2019-05-30 01:00:00 16.9 0 Calma 13 Noroeste 0 -- -- 50
2019-05-30 00:00:00 16.8 0 Calma 12 Sudoeste 0 -- -- 51
2019-05-29 23:00:00 16.3 9 Noroeste 12 Noroeste 0 -- -- 56
2019-05-29 22:00:00 17.5 6 Noroeste 13 Sudoeste 0 -- -- 60
2019-05-29 21:00:00 19.1 8 Sudoeste 22 Sudoeste 0 -- -- 58
2019-05-29 20:00:00 19.8 14 Sudoeste 27 Sur 0 -- -- 52
2019-05-29 19:00:00 20.2 18 Sur 28 Sur 0 -- -- 56
2019-05-29 18:00:00 20.5 19 Sudoeste 30 Sur 0 -- -- 55
2019-05-29 17:00:00 20.9 18 Sur 27 Sudoeste 0 -- -- 53
2019-05-29 16:00:00 20.9 18 Sudoeste 29 Sur 0 -- -- 56
2019-05-29 15:00:00 22.1 18 Sur 30 Sudeste 0 -- -- 46
2019-05-29 14:00:00 22.8 16 Sudeste 28 Nordeste 0 -- -- 44
2019-05-29 13:00:00 23.6 14 Norte 31 Norte 0 -- -- 29
2019-05-29 12:00:00 22.8 18 Norte 36 Norte 0 -- -- 34
2019-05-29 11:00:00 21.2 22 Norte 45 Norte 0 -- -- 37
2019-05-29 10:00:00 19.4 28 Norte 60 Norte 0 -- -- 40
2019-05-29 09:00:00 17.7 33 Norte 57 Norte 0 -- -- 42
2019-05-29 08:00:00 17 27 Norte 57 Norte 0 -- -- 43
2019-05-29 07:00:00 16 28 Norte 63 Norte 0 -- -- 46
2019-05-29 06:00:00 15.9 34 Norte 57 Norte 0 -- -- 46
2019-05-29 05:00:00 16.2 30 Norte 57 Norte 0 -- -- 45
2019-05-29 04:00:00 16.5 35 Norte 63 Norte 0 -- -- 43
2019-05-29 03:00:00 16.8 21 Norte 39 Noroeste 0 -- -- 44
2019-05-29 02:00:00 17.4 17 Norte 32 Norte 0 -- -- 43
2019-05-29 01:00:00 18.2 20 Norte 35 Nordeste 0 -- -- 39
2019-05-29 00:00:00 18.6 11 Norte 29 Norte 0 -- -- 38
2019-05-28 23:00:00 19.3 6 Nordeste 33 Norte 0 -- -- 42
2019-05-28 22:00:00 20.4 25 Norte 37 Norte 0 -- -- 41
2019-05-28 21:00:00 21.9 15 Nordeste 40 Nordeste 0 -- -- 37
2019-05-28 20:00:00 22.4 13 Este 30 Nordeste 0 -- -- 37
2019-05-28 19:00:00 20.4 10 Sur 20 Sur 0 -- -- 57
2019-05-28 18:00:00 20.8 12 Sur 19 Sur 0 -- -- 56
2019-05-28 17:00:00 21 12 Sur 23 Sur 0 -- -- 51
2019-05-28 16:00:00 21.2 15 Sur 26 Sudeste 0 -- -- 53
2019-05-28 15:00:00 22.3 15 Sur 27 Sur 0 -- -- 53
2019-05-28 14:00:00 22.4 22 Sur 30 Sur 0 -- -- 47
2019-05-28 13:00:00 23.6 15 Sudoeste 32 Norte 0 -- -- 43
2019-05-28 12:00:00 23.8 19 Norte 38 Norte 0 -- -- 28
2019-05-28 11:00:00 22.4 15 Nordeste 40 Norte 0 -- -- 31
2019-05-28 10:00:00 20.9 21 Nordeste 40 Norte 0 -- -- 34
2019-05-28 09:00:00 19.4 23 Nordeste 38 Norte 0 -- -- 34
2019-05-28 08:00:00 17.8 17 Nordeste 33 Norte 0 -- -- 41
2019-05-28 07:00:00 17.8 19 Norte 33 Nordeste 0 -- -- 46
2019-05-28 06:00:00 16.9 4 Norte 24 Nordeste 0 -- -- 52
2019-05-28 05:00:00 18.1 17 Nordeste 23 Nordeste 0 -- -- 48
2019-05-28 04:00:00 19.5 13 Noroeste 23 Norte 0 -- -- 51
2019-05-28 03:00:00 20.2 11 Norte 43 Nordeste 0 -- -- 49
2019-05-28 02:00:00 21 20 Norte 37 Nordeste 0 -- -- 49
2019-05-28 01:00:00 21.5 11 Norte 24 Nordeste 0 -- -- 49
2019-05-28 00:00:00 17.9 5 Sudoeste 12 Noroeste 0 -- -- 80
2019-05-27 23:00:00 18.1 5 Norte 9 Norte 0 -- -- 80
2019-05-27 22:00:00 18.7 0 Calma 9 Sur 0 -- -- 80
2019-05-27 21:00:00 19.7 6 Sur 16 Sudoeste 0 -- -- 77
2019-05-27 20:00:00 20.5 12 Sudoeste 20 Sudoeste 0 -- -- 69
2019-05-27 19:00:00 21.1 14 Sur 22 Sur 0 -- -- 55
2019-05-27 18:00:00 21.6 15 Sur 22 Sur 0 -- -- 58
2019-05-27 17:00:00 21.4 15 Sur 24 Sudoeste 0 -- -- 58
2019-05-27 16:00:00 22.1 15 Sur 24 Sur 0 -- -- 59
2019-05-27 15:00:00 21.8 17 Sur 30 Sur 0 -- -- 62
2019-05-27 14:00:00 20.9 18 Sur 26 Sur 0 -- -- 65
2019-05-27 13:00:00 21 14 Sur 23 Sur 0 -- -- 59
2019-05-27 12:00:00 21.5 13 Sur 22 Sur 0 -- -- 56
2019-05-27 11:00:00 22.3 13 Sur 18 Sur 0 -- -- 51
2019-05-27 10:00:00 21.8 6 Sur 12 Sur 0 -- -- 48
2019-05-27 09:00:00 20.5 4 Sur 9 Sudoeste 0 -- -- 53
2019-05-27 08:00:00 17.2 2 Noroeste 9 Noroeste 0 -- -- 62
2019-05-27 07:00:00 15.2 2 Nordeste 8 Noroeste 0 -- -- 66
2019-05-27 06:00:00 14.6 5 Noroeste 8 Norte 0 -- -- 68
2019-05-27 05:00:00 15 3 Noroeste 10 Norte 0 -- -- 67
2019-05-27 04:00:00 15.6 9 Norte 13 Norte 0 -- -- 64
2019-05-27 03:00:00 16 7 Noroeste 13 Norte 0 -- -- 66
2019-05-27 02:00:00 16 5 Norte 11 Noroeste 0 -- -- 68
2019-05-27 01:00:00 15.8 4 Noroeste 9 Noroeste 0 -- -- 76
2019-05-27 00:00:00 16.1 5 Noroeste 9 Oeste 0 -- -- 79
2019-05-26 23:00:00 17.3 4 Norte 7 Norte 0 -- -- 80
2019-05-26 22:00:00 18.1 3 Norte 10 Sur 0 -- -- 77
2019-05-26 21:00:00 20.3 5 Sudoeste 13 Sudoeste 0 -- -- 69
2019-05-26 20:00:00 21.7 8 Sur 17 Sudoeste 0 -- -- 61
2019-05-26 19:00:00 21.3 13 Sur 20 Sudoeste 0 -- -- 58
2019-05-26 18:00:00 21.9 13 Sur 21 Sur 0 -- -- 56
2019-05-26 17:00:00 22.2 13 Sur 21 Sur 0 -- -- 53
2019-05-26 16:00:00 22.8 15 Sur 24 Sur 0 -- -- 49
2019-05-26 15:00:00 22.7 14 Sur 25 Sudoeste 0 -- -- 46
2019-05-26 14:00:00 22.3 15 Sudoeste 25 Sudoeste 0 -- -- 47
2019-05-26 13:00:00 21.9 15 Sur 23 Sur 0 -- -- 52
2019-05-26 12:00:00 22.7 9 Sur 20 Nordeste 0 -- -- 46
2019-05-26 11:00:00 22.5 15 Nordeste 29 Nordeste 0 -- -- 42
2019-05-26 10:00:00 21 12 Norte 26 Norte 0 -- -- 46
2019-05-26 09:00:00 19.3 15 Norte 26 Norte 0 -- -- 49
2019-05-26 08:00:00 17.1 11 Norte 22 Norte 0 -- -- 56
2019-05-26 07:00:00 14.2 2 Oeste 15 Nordeste 0 -- -- 66
2019-05-26 06:00:00 14.2 3 Oeste 16 Norte 0 -- -- 68
2019-05-26 05:00:00 15.7 10 Norte 18 Norte 0 -- -- 60
2019-05-26 04:00:00 16.5 14 Norte 19 Norte 0 -- -- 59
2019-05-26 03:00:00 16.2 5 Norte 11 Noroeste 0 -- -- 75
2019-05-26 02:00:00 16.5 4 Norte 11 Noroeste 0 -- -- 67
2019-05-26 01:00:00 17.4 6 Norte 10 Noroeste 0 -- -- 64
2019-05-26 00:00:00 17.2 5 Noroeste 14 Nordeste 0 -- -- 68
2019-05-25 23:00:00 17 2 Norte 9 Noroeste 0 -- -- 75
2019-05-25 22:00:00 18.4 6 Noroeste 9 Oeste 0 -- -- 70
2019-05-25 21:00:00 19.8 3 Sudoeste 14 Sur 0 -- -- 66
2019-05-25 20:00:00 20.3 6 Sudoeste 16 Sur 0 -- -- 58
2019-05-25 19:00:00 20.4 10 Sudoeste 17 Sur 0 -- -- 59
2019-05-25 18:00:00 21.8 10 Sudoeste 17 Sur 0 -- -- 56
2019-05-25 17:00:00 21.4 8 Sur 14 Sudeste 0 -- -- 59
2019-05-25 16:00:00 22.2 10 Sur 24 Nordeste 0 -- -- 57
2019-05-25 15:00:00 23.9 11 Nordeste 33 Norte 0 -- -- 44
2019-05-25 14:00:00 23.4 17 Nordeste 34 Nordeste 0 -- -- 47
2019-05-25 13:00:00 21.2 18 Norte 36 Norte 0 -- -- 50
2019-05-25 12:00:00 20.7 21 Nordeste 38 Norte 0 -- -- 54
2019-05-25 11:00:00 19.4 17 Norte 36 Norte 0 -- -- 57
2019-05-25 10:00:00 17.9 15 Nordeste 31 Norte 0 -- -- 61
2019-05-25 09:00:00 17.5 9 Nordeste 25 Nordeste 0 -- -- 62
2019-05-25 08:00:00 16.5 10 Nordeste 21 Nordeste 0 -- -- 66
2019-05-25 07:00:00 16.1 8 Este 32 Nordeste 0 -- -- 69
2019-05-25 06:00:00 16.5 15 Nordeste 34 Nordeste 0 -- -- 66
2019-05-25 05:00:00 16.6 17 Nordeste 32 Nordeste 0 -- -- 67
2019-05-25 04:00:00 16.4 7 Nordeste 23 Nordeste 0 -- -- 71
2019-05-25 03:00:00 16.7 15 Nordeste 29 Norte 0 -- -- 69
2019-05-25 02:00:00 16.3 12 Nordeste 24 Norte 0 -- -- 73
2019-05-25 01:00:00 15.9 8 Nordeste 17 Nordeste 0.2 -- -- 78
2019-05-25 00:00:00 15.6 3 Noroeste 6 Noroeste 0.6 -- -- 91
2019-05-24 23:00:00 16 4 Noroeste 6 Oeste 0.8 -- -- 92
2019-05-24 22:00:00 16.5 4 Noroeste 5 Noroeste 0.6 -- -- 90
2019-05-24 21:00:00 16.8 0 Calma 8 Sudoeste 0 -- -- 85
2019-05-24 20:00:00 17.2 6 Sudoeste 10 Sudoeste 0 -- -- 81
2019-05-24 19:00:00 17.6 6 Sudoeste 13 Sur 0 -- -- 80
2019-05-24 18:00:00 18.2 8 Sudoeste 14 Sudoeste 0 -- -- 80
2019-05-24 17:00:00 18.8 8 Sur 14 Sudeste 0 -- -- 76
2019-05-24 16:00:00 18.7 5 Sur 15 Este 0 -- -- 79
2019-05-24 15:00:00 17 9 Este 25 Sudeste 0 -- -- 88
2019-05-24 14:00:00 16.6 4 Sudeste 19 Norte 0.8 -- -- 87
2019-05-24 13:00:00 17.4 9 Nordeste 18 Norte 0.2 -- -- 86
2019-05-24 12:00:00 17.7 7 Sudeste 14 Este 1 -- -- 91
2019-05-24 11:00:00 18.3 6 Sudoeste 9 Sudoeste 0.2 -- -- 88
2019-05-24 10:00:00 18.3 5 Este 15 Norte 0 -- -- 88
2019-05-24 09:00:00 17.6 10 Norte 19 Nordeste 0 -- -- 90
2019-05-24 08:00:00 17.3 10 Nordeste 18 Nordeste 0 -- -- 91
2019-05-24 07:00:00 16.7 12 Norte 21 Norte 1.4 -- -- 92
2019-05-24 06:00:00 16.8 10 Nordeste 19 Este 0.2 -- -- 89
2019-05-24 05:00:00 16.9 5 Nordeste 28 Nordeste 1 -- -- 89
2019-05-24 04:00:00 17.5 13 Nordeste 24 Noroeste 1.2 -- -- 87
2019-05-24 03:00:00 17.8 14 Nordeste 24 Nordeste 0 -- -- 85
2019-05-24 02:00:00 17.6 6 Nordeste 9 Nordeste 0 -- -- 80
2019-05-24 01:00:00 17.5 0 Calma 20 Norte 0 -- -- 79
2019-05-24 00:00:00 17.1 0 Calma 14 Norte 0 -- -- 81
2019-05-23 23:00:00 18 8 Norte 13 Norte 0 -- -- 83
2019-05-23 22:00:00 18.8 3 Este 6 Norte 0 -- -- 80
2019-05-23 21:00:00 19.6 3 Sur 5 Sur 0 -- -- 75
2019-05-23 20:00:00 20.1 3 Sur 9 Sur 0 -- -- 69
2019-05-23 19:00:00 20.4 5 Sur 8 Sur 0 -- -- 68
2019-05-23 18:00:00 19.9 3 Sur 9 Sur 0 -- -- 73
2019-05-23 17:00:00 20.6 5 Sur 12 Sudeste 0 -- -- 74
2019-05-23 16:00:00 20.6 8 Sur 18 Sudeste 0 -- -- 75
2019-05-23 15:00:00 21.2 11 Sur 20 Sur 0 -- -- 74
2019-05-23 14:00:00 21 10 Sur 21 Sudeste 0 -- -- 73
2019-05-23 13:00:00 21.5 12 Sudeste 21 Sur 0 -- -- 69
2019-05-23 12:00:00 21.6 11 Sur 18 Sur 0 -- -- 66
2019-05-23 11:00:00 21 8 Sudeste 16 Sudoeste 0 -- -- 71
2019-05-23 10:00:00 20.6 6 Sudoeste 12 Sudoeste 0 -- -- 69
2019-05-23 09:00:00 19.1 4 Sur 8 Norte 0 -- -- 68
2019-05-23 08:00:00 16.6 6 Noroeste 17 Norte 0 -- -- 75
2019-05-23 07:00:00 14.8 12 Norte 21 Norte 0 -- -- 80
2019-05-23 06:00:00 15.3 13 Norte 16 Norte 0 -- -- 81
2019-05-23 05:00:00 15.5 9 Norte 11 Norte 0 -- -- 81
2019-05-23 04:00:00 15.6 8 Norte 12 Norte 0 -- -- 80
2019-05-23 03:00:00 15.8 3 Nordeste 10 Norte 0 -- -- 78
2019-05-23 02:00:00 15.9 3 Norte 14 Noroeste 0 -- -- 75
2019-05-23 01:00:00 16.9 5 Noroeste 14 Noroeste 0 -- -- 71
2019-05-23 00:00:00 16.2 9 Noroeste 12 Norte 0 -- -- 73
2019-05-22 23:00:00 16.6 6 Norte 8 Noroeste 0 -- -- 78
2019-05-22 22:00:00 17.8 3 Noroeste 7 Sudoeste 0 -- -- 85
2019-05-22 21:00:00 18.6 4 Sur 13 Sur 0 -- -- 84
2019-05-22 20:00:00 19.6 8 Sur 16 Sur 0 -- -- 76
2019-05-22 19:00:00 20 12 Sur 19 Sur 0 -- -- 77
2019-05-22 18:00:00 20.5 10 Sur 20 Sur 0 -- -- 74
2019-05-22 17:00:00 20.8 11 Sur 21 Sur 0 -- -- 72
2019-05-22 16:00:00 21.1 11 Sur 21 Sur 0 -- -- 72
2019-05-22 15:00:00 20.8 14 Sur 22 Sudoeste 0 -- -- 69
2019-05-22 14:00:00 20.9 14 Sur 22 Sur 0 -- -- 69
2019-05-22 13:00:00 20.9 13 Sudeste 22 Sur 0 -- -- 71
2019-05-22 12:00:00 20.8 10 Sur 19 Sudeste 0 -- -- 69
2019-05-22 11:00:00 19.9 11 Sur 21 Sur 0 -- -- 73
2019-05-22 10:00:00 20 6 Sur 13 Sudeste 0 -- -- 67
2019-05-22 09:00:00 17.8 6 Norte 18 Norte 0 -- -- 74
2019-05-22 08:00:00 14.7 13 Norte 23 Norte 0 -- -- 80
2019-05-22 07:00:00 13.3 16 Norte 23 Norte 0 -- -- 79
2019-05-22 06:00:00 14.4 14 Norte 18 Norte 0 -- -- 73
2019-05-22 05:00:00 14.8 6 Norte 15 Norte 0 -- -- 81
2019-05-22 04:00:00 15.4 5 Norte 12 Norte 0 -- -- 76
2019-05-22 03:00:00 15.2 4 Noroeste 21 Norte 0 -- -- 77
2019-05-22 02:00:00 15.2 13 Norte 20 Norte 0 -- -- 77
2019-05-22 01:00:00 15.7 2 Noroeste 13 Oeste 0 -- -- 77
2019-05-22 00:00:00 15 5 Noroeste 10 Noroeste 0 -- -- 77
2019-05-21 23:00:00 15.5 3 Noroeste 9 Noroeste 0 -- -- 80
2019-05-21 22:00:00 17.3 4 Oeste 17 Sudoeste 0 -- -- 77
2019-05-21 21:00:00 18.1 10 Sudoeste 15 Sudoeste 0 -- -- 72
2019-05-21 20:00:00 18.2 8 Sudoeste 24 Oeste 0 -- -- 71
2019-05-21 19:00:00 18.7 13 Sudoeste 28 Sudoeste 0 -- -- 79
2019-05-21 18:00:00 18.5 11 Sudoeste 18 Sudoeste 0 -- -- 85
2019-05-21 17:00:00 19.5 6 Sur 19 Sudeste 0 -- -- 78
2019-05-21 16:00:00 20.7 12 Sur 24 Sur 0 -- -- 72
2019-05-21 15:00:00 21.2 14 Sur 22 Sur 0 -- -- 68
2019-05-21 14:00:00 20.8 10 Sur 21 Sur 0 -- -- 70
2019-05-21 13:00:00 20.6 13 Sudeste 23 Sudeste 0 -- -- 71
2019-05-21 12:00:00 20.7 10 Sur 19 Sur 0 -- -- 68
2019-05-21 11:00:00 19.7 11 Sur 20 Sudeste 0 -- -- 71
2019-05-21 10:00:00 19.5 3 Este 14 Sur 0 -- -- 67
2019-05-21 09:00:00 18 7 Este 19 Norte 0 -- -- 64
2019-05-21 08:00:00 15.8 14 Norte 21 Norte 0 -- -- 62
2019-05-21 07:00:00 14.1 13 Norte 18 Norte 0 -- -- 59
2019-05-21 06:00:00 14.7 5 Norte 16 Norte 0 -- -- 60
2019-05-21 05:00:00 14.9 2 Norte 13 Noroeste 0 -- -- 58
2019-05-21 04:00:00 15.3 5 Norte 13 Noroeste 0 -- -- 59
2019-05-21 03:00:00 15.8 2 Noroeste 19 Norte 0 -- -- 59
2019-05-21 02:00:00 16 5 Noroeste 11 Noroeste 0 -- -- 63
2019-05-21 01:00:00 15.5 3 Nordeste 20 Noroeste 0 -- -- 67
2019-05-21 00:00:00 16.3 13 Noroeste 16 Noroeste 0 -- -- 65